Time;durP1;ratioP1;P1;durP2;ratioP2;P2;SDS_P1;SDS_P2;PMS_P1;PMS_P2;Temp;Humidity;BMP_temperature;BMP_pressure;BME280_temperature;BME280_humidity;BME280_pressure;Samples;Min_cycle;Max_cycle;Signal;HPM_P1;HPM_P2
2023/08/17 20:25:51;;;;;;;4.57;4.18;;;27.70;96.90;;;;;;9542635;22;1617950;-91
2023/08/17 20:29:46;;;;;;;7.47;4.30;;;27.60;97.30;;;;;;9593987;23;20166;-91
2023/08/17 20:33:32;;;;;;;6.82;4.60;;;27.60;97.40;;;;;;9593651;23;20201;-90
2023/08/17 20:37:17;;;;;;;7.15;4.30;;;27.60;97.60;;;;;;9593381;23;20232;-91
2023/08/17 20:41:07;;;;;;;5.88;4.35;;;27.60;97.40;;;;;;9593579;23;20170;-90
2023/08/17 20:44:58;;;;;;;4.30;4.00;;;27.60;97.50;;;;;;9593430;23;20175;-90
2023/08/17 20:48:49;;;;;;;4.57;4.18;;;27.50;97.70;;;;;;9595210;23;20139;-91
2023/08/17 20:52:35;;;;;;;6.13;4.32;;;27.40;97.30;;;;;;9593893;23;20598;-91
2023/08/17 20:56:21;;;;;;;6.88;4.43;;;27.40;97.50;;;;;;9593340;23;20641;-91
2023/08/17 21:00:09;;;;;;;4.57;4.10;;;27.40;97.90;;;;;;9593462;23;20182;-90
2023/08/17 21:03:56;;;;;;;4.45;4.05;;;27.40;97.90;;;;;;9593520;23;20257;-90
2023/08/17 21:07:41;;;;;;;5.38;4.55;;;27.40;98.00;;;;;;9593363;23;20179;-90
2023/08/17 21:11:27;;;;;;;4.80;4.30;;;27.30;97.90;;;;;;9593983;23;20165;-89
2023/08/17 21:15:13;;;;;;;5.68;4.53;;;27.20;97.90;;;;;;9594886;23;20177;-90
2023/08/17 21:19:01;;;;;;;5.15;4.15;;;27.20;98.20;;;;;;9593588;23;20163;-90
2023/08/17 21:22:50;;;;;;;5.57;4.55;;;27.20;98.40;;;;;;9594822;23;20229;-90
2023/08/17 21:26:36;;;;;;;4.50;4.10;;;27.10;98.10;;;;;;9594537;23;20197;-90
2023/08/17 21:30:21;;;;;;;4.47;4.00;;;27.00;98.40;;;;;;9595673;23;20249;-91
2023/08/17 21:34:07;;;;;;;5.30;4.80;;;26.90;98.50;;;;;;9593401;23;20158;-90
2023/08/17 21:37:53;;;;;;;4.63;4.22;;;26.80;98.60;;;;;;9593491;23;20299;-90
2023/08/17 21:41:46;;;;;;;5.15;4.65;;;26.80;98.80;;;;;;9593352;23;20162;-90
2023/08/17 21:45:32;;;;;;;6.15;4.72;;;26.80;98.80;;;;;;9593111;23;20194;-91
2023/08/17 21:49:19;;;;;;;5.03;4.20;;;26.80;98.80;;;;;;9593285;23;20161;-90
2023/08/17 21:53:18;;;;;;;6.50;4.68;;;26.70;98.80;;;;;;9594038;23;20720;-90
2023/08/17 21:57:04;;;;;;;5.03;4.53;;;26.60;99.00;;;;;;9593479;23;20175;-90
2023/08/17 22:00:51;;;;;;;4.95;4.43;;;26.60;99.10;;;;;;9593644;23;20158;-91
2023/08/17 22:04:37;;;;;;;5.07;4.68;;;26.50;98.80;;;;;;9593311;23;20563;-90
2023/08/17 22:08:22;;;;;;;4.90;4.40;;;26.40;99.30;;;;;;9593419;23;20189;-90
2023/08/17 22:12:08;;;;;;;5.03;4.13;;;26.40;99.40;;;;;;9596970;23;20305;-90
2023/08/17 22:15:54;;;;;;;5.18;4.68;;;26.40;99.50;;;;;;9596119;23;20501;-90
2023/08/17 22:19:39;;;;;;;5.22;4.55;;;26.30;99.30;;;;;;9595901;23;20170;-90
2023/08/17 22:23:25;;;;;;;5.05;4.53;;;26.20;99.10;;;;;;9595575;23;20252;-90
2023/08/17 22:27:11;;;;;;;5.97;4.57;;;26.10;99.40;;;;;;9598132;23;20748;-89
2023/08/17 22:31:04;;;;;;;4.80;4.25;;;26.10;99.40;;;;;;9595510;23;20159;-90
2023/08/17 22:34:50;;;;;;;5.07;4.57;;;26.00;99.50;;;;;;9595727;23;20194;-90
2023/08/17 22:38:36;;;;;;;4.90;4.40;;;26.00;99.60;;;;;;9595744;23;20183;-90
2023/08/17 22:42:21;;;;;;;5.30;4.55;;;25.90;99.80;;;;;;9595302;23;20181;-89
2023/08/17 22:46:07;;;;;;;5.72;4.47;;;25.80;99.80;;;;;;9595880;23;20191;-90
2023/08/17 22:49:54;;;;;;;6.40;4.70;;;25.80;99.90;;;;;;9595544;23;20204;-90
2023/08/17 22:53:40;;;;;;;5.60;5.10;;;25.80;99.90;;;;;;9595484;23;20481;-90
2023/08/17 22:57:26;;;;;;;6.82;5.10;;;25.70;99.90;;;;;;9595706;23;20178;-91
2023/08/17 23:01:12;;;;;;;5.40;4.70;;;25.70;99.90;;;;;;9595830;23;20159;-91
2023/08/17 23:04:57;;;;;;;5.05;4.43;;;25.60;99.90;;;;;;9595323;23;20187;-91
2023/08/17 23:08:43;;;;;;;6.95;4.85;;;25.50;99.90;;;;;;9595579;23;20155;-90
2023/08/17 23:12:29;;;;;;;5.18;4.60;;;25.50;99.90;;;;;;9595336;23;20184;-90
2023/08/17 23:16:14;;;;;;;7.22;5.22;;;25.50;99.90;;;;;;9595200;23;20223;-91
2023/08/17 23:20:00;;;;;;;6.97;4.82;;;25.50;99.90;;;;;;9595522;23;20162;-91
2023/08/17 23:23:45;;;;;;;6.05;5.32;;;25.50;99.90;;;;;;9594848;23;20190;-91
2023/08/17 23:27:31;;;;;;;5.70;4.97;;;25.50;99.90;;;;;;9595148;23;20224;-91
2023/08/17 23:31:16;;;;;;;5.32;4.82;;;25.40;99.90;;;;;;9595148;23;20162;-91
2023/08/17 23:35:02;;;;;;;5.65;5.15;;;25.40;99.90;;;;;;9594825;23;20590;-91
2023/08/17 23:38:48;;;;;;;4.97;4.53;;;25.30;99.90;;;;;;9594965;23;20159;-91
2023/08/17 23:42:33;;;;;;;7.10;5.18;;;25.30;99.90;;;;;;9594896;23;20592;-91
2023/08/17 23:46:19;;;;;;;7.50;4.63;;;25.30;99.90;;;;;;9594535;23;20197;-91
2023/08/17 23:50:05;;;;;;;5.30;4.90;;;25.20;99.90;;;;;;9594798;23;20482;-91
2023/08/17 23:53:51;;;;;;;5.72;5.20;;;25.20;99.90;;;;;;9594846;23;20159;-91
2023/08/17 23:57:36;;;;;;;5.53;4.90;;;25.20;99.90;;;;;;9595220;23;20265;-90
